createdAt,value
2018-12-08T00:00:54.204Z,6.79
2018-12-08T00:01:54.193Z,6.84
2018-12-08T00:02:54.181Z,6.77
2018-12-08T00:03:54.201Z,6.73
2018-12-08T00:04:54.164Z,6.69
2018-12-08T00:05:54.151Z,6.63
2018-12-08T00:06:54.137Z,6.71
2018-12-08T00:07:54.125Z,6.62
2018-12-08T00:08:54.131Z,6.66
2018-12-08T00:09:54.103Z,6.62
2018-12-08T00:10:54.100Z,6.66
2018-12-08T00:11:54.081Z,6.58
2018-12-08T00:12:54.070Z,6.68
2018-12-08T00:13:54.077Z,6.62
2018-12-08T00:14:54.062Z,6.61
2018-12-08T00:15:54.039Z,6.69
2018-12-08T00:16:54.027Z,6.61
2018-12-08T00:17:54.024Z,6.61
2018-12-08T00:18:54.006Z,6.58
2018-12-08T00:19:54.005Z,6.58
2018-12-08T00:20:53.981Z,6.59
2018-12-08T00:21:53.972Z,6.62
2018-12-08T00:22:53.961Z,6.58
2018-12-08T00:23:53.953Z,6.62
2018-12-08T00:24:53.959Z,6.54
2018-12-08T00:25:53.927Z,6.58
2018-12-08T00:26:53.919Z,6.56
2018-12-08T00:27:53.906Z,6.51
2018-12-08T00:28:53.894Z,6.54
2018-12-08T00:29:53.888Z,6.51
2018-12-08T00:30:53.895Z,6.47
2018-12-08T00:31:53.860Z,6.47
2018-12-08T00:32:53.851Z,6.47
2018-12-08T00:33:53.838Z,6.51
2018-12-08T00:34:53.826Z,6.53
2018-12-08T00:35:53.819Z,6.44
2018-12-08T00:36:53.828Z,6.44
2018-12-08T00:37:53.794Z,6.30
2018-12-08T00:38:53.782Z,6.32
2018-12-08T00:39:53.773Z,6.29
2018-12-08T00:40:53.760Z,6.38
2018-12-08T00:41:53.759Z,6.29
2018-12-08T00:42:53.777Z,6.33
2018-12-08T00:43:53.731Z,6.35
2018-12-08T00:44:53.716Z,6.46
2018-12-08T00:45:53.789Z,6.48
2018-12-08T00:46:53.694Z,6.54
2018-12-08T00:47:53.691Z,6.44
2018-12-08T00:48:53.696Z,6.46
2018-12-08T00:49:53.662Z,6.35
2018-12-08T00:50:53.651Z,6.46
2018-12-08T00:51:53.641Z,6.38
2018-12-08T00:52:53.627Z,6.41
2018-12-08T00:53:53.619Z,6.40
2018-12-08T00:54:53.637Z,6.35
2018-12-08T00:55:53.596Z,6.33
2018-12-08T00:56:53.584Z,6.40
2018-12-08T00:57:53.573Z,6.35
2018-12-08T00:58:53.562Z,6.35
2018-12-08T00:59:53.550Z,6.30
2018-12-08T01:00:53.586Z,6.26
2018-12-08T01:01:53.544Z,6.29
2018-12-08T01:02:53.518Z,6.16
2018-12-08T01:03:53.505Z,6.18
2018-12-08T01:04:53.495Z,6.14
2018-12-08T01:05:53.485Z,6.13
2018-12-08T01:06:53.486Z,6.16
2018-12-08T01:07:53.470Z,6.13
2018-12-08T01:08:53.457Z,6.25
2018-12-08T01:09:53.440Z,6.13
2018-12-08T01:10:53.442Z,6.16
2018-12-08T01:11:53.419Z,6.14
2018-12-08T01:12:53.407Z,6.13
2018-12-08T01:13:53.400Z,6.10
2018-12-08T01:14:53.391Z,6.16
2018-12-08T01:15:53.388Z,6.07
2018-12-08T01:16:53.364Z,6.03
2018-12-08T01:17:53.353Z,6.00
2018-12-08T01:18:53.342Z,5.92
2018-12-08T01:19:53.332Z,6.03
2018-12-08T01:20:53.345Z,6.01
2018-12-08T01:21:53.316Z,5.92
2018-12-08T01:22:53.298Z,5.78
2018-12-08T01:23:53.289Z,5.86
2018-12-08T01:24:53.276Z,5.77
2018-12-08T01:25:53.265Z,5.75
2018-12-08T01:26:53.277Z,5.75
2018-12-08T01:27:53.245Z,5.75
2018-12-08T01:28:53.231Z,5.71
2018-12-08T01:29:53.222Z,5.67
2018-12-08T01:30:53.263Z,5.68
2018-12-08T01:31:53.197Z,5.67
2018-12-08T01:32:54.523Z,5.68
2018-12-08T01:33:53.178Z,5.67
2018-12-08T01:34:53.163Z,5.64
2018-12-08T01:35:53.157Z,5.67
2018-12-08T01:36:53.143Z,5.60
2018-12-08T01:37:53.135Z,5.56
2018-12-08T01:38:53.155Z,5.49
2018-12-08T01:39:53.125Z,5.50
2018-12-08T01:40:53.109Z,5.40
2018-12-08T01:41:53.089Z,5.38
2018-12-08T01:42:53.079Z,5.45
2018-12-08T01:43:53.068Z,5.41
2018-12-08T01:44:53.090Z,5.32
2018-12-08T01:45:53.044Z,5.32
2018-12-08T01:46:53.039Z,5.32
2018-12-08T01:47:53.021Z,5.30
2018-12-08T01:48:53.010Z,5.28
2018-12-08T01:49:53.000Z,5.30
2018-12-08T01:50:53.022Z,5.34
2018-12-08T01:51:52.975Z,5.22
2018-12-08T01:52:52.975Z,5.31
2018-12-08T01:53:52.956Z,5.34
2018-12-08T01:54:52.944Z,5.31
2018-12-08T01:55:52.934Z,5.38
2018-12-08T01:56:52.944Z,5.38
2018-12-08T01:57:52.912Z,5.40
2018-12-08T01:58:52.907Z,5.46
2018-12-08T01:59:52.890Z,5.55
2018-12-08T02:00:52.878Z,5.59
2018-12-08T02:01:52.866Z,5.56
2018-12-08T02:02:52.866Z,5.64
2018-12-08T02:03:53.028Z,5.70
2018-12-08T02:04:52.849Z,5.68
2018-12-08T02:05:52.821Z,5.71
2018-12-08T02:06:52.810Z,5.68
2018-12-08T02:07:52.799Z,5.73
2018-12-08T02:08:52.788Z,5.64
2018-12-08T02:09:52.791Z,5.66
2018-12-08T02:10:52.769Z,5.60
2018-12-08T02:11:52.755Z,5.67
2018-12-08T02:12:52.744Z,5.64
2018-12-08T02:13:52.731Z,5.66
2018-12-08T02:14:52.846Z,5.68
2018-12-08T02:15:52.709Z,5.64
2018-12-08T02:16:52.706Z,5.66
2018-12-08T02:17:52.761Z,5.60
2018-12-08T02:18:52.678Z,5.59
2018-12-08T02:19:52.667Z,5.52
2018-12-08T02:20:52.667Z,5.56
2018-12-08T02:21:52.644Z,5.55
2018-12-08T02:22:52.638Z,5.56
2018-12-08T02:23:52.623Z,5.56
2018-12-08T02:24:52.622Z,5.55
2018-12-08T02:25:52.598Z,5.53
2018-12-08T02:26:52.587Z,5.53
2018-12-08T02:27:52.575Z,5.50
2018-12-08T02:28:52.565Z,5.56
2018-12-08T02:29:52.572Z,5.55
2018-12-08T02:30:52.551Z,5.49
2018-12-08T02:31:52.533Z,5.49
2018-12-08T02:32:52.518Z,5.38
2018-12-08T02:33:52.507Z,5.46
2018-12-08T02:34:52.521Z,5.34
2018-12-08T02:35:52.490Z,5.37
2018-12-08T02:36:52.480Z,5.28
2018-12-08T02:37:52.476Z,5.25
2018-12-08T02:38:52.454Z,5.28
2018-12-08T02:39:52.442Z,5.31
2018-12-08T02:40:52.443Z,5.32
2018-12-08T02:41:52.419Z,5.22
2018-12-08T02:42:52.408Z,5.28
2018-12-08T02:43:52.407Z,5.22
2018-12-08T02:44:52.418Z,5.28
2018-12-08T02:45:52.375Z,5.28
2018-12-08T02:46:52.400Z,5.31
2018-12-08T02:47:52.353Z,5.30
2018-12-08T02:48:52.342Z,5.28
2018-12-08T02:49:52.334Z,5.27
2018-12-08T02:50:52.318Z,5.20
2018-12-08T02:51:52.307Z,5.31
2018-12-08T02:52:52.318Z,5.34
2018-12-08T02:53:52.285Z,5.37
2018-12-08T02:54:52.274Z,5.23
2018-12-08T02:55:52.269Z,5.28
2018-12-08T02:56:52.257Z,5.28
2018-12-08T02:57:52.239Z,5.34
2018-12-08T02:58:52.264Z,5.40
2018-12-08T02:59:52.217Z,5.41
2018-12-08T03:00:52.208Z,5.43
2018-12-08T03:01:52.198Z,5.48
2018-12-08T03:02:52.189Z,5.53
2018-12-08T03:03:52.185Z,5.57
2018-12-08T03:04:52.174Z,5.66
2018-12-08T03:05:52.150Z,5.59
2018-12-08T03:06:52.141Z,5.70
2018-12-08T03:07:52.126Z,5.70
2018-12-08T03:08:52.117Z,5.63
2018-12-08T03:09:52.150Z,5.73
2018-12-08T03:10:52.094Z,5.77
2018-12-08T03:11:52.085Z,5.73
2018-12-08T03:12:52.078Z,5.71
2018-12-08T03:13:52.059Z,5.66
2018-12-08T03:14:52.049Z,5.71
2018-12-08T03:15:52.079Z,5.63
2018-12-08T03:16:52.035Z,5.68
2018-12-08T03:17:52.018Z,5.66
2018-12-08T03:18:52.007Z,5.68
2018-12-08T03:19:51.995Z,5.63
2018-12-08T03:20:51.984Z,5.67
2018-12-08T03:21:51.987Z,5.59
2018-12-08T03:22:51.969Z,5.68
2018-12-08T03:23:51.951Z,5.60
2018-12-08T03:24:51.939Z,5.56
2018-12-08T03:25:52.015Z,5.52
2018-12-08T03:26:51.918Z,5.56
2018-12-08T03:27:51.906Z,5.50
2018-12-08T03:28:51.902Z,5.41
2018-12-08T03:29:51.889Z,5.45
2018-12-08T03:30:51.889Z,5.31
2018-12-08T03:31:51.876Z,5.30
2018-12-08T03:32:51.851Z,5.31
2018-12-08T03:33:51.839Z,5.38
2018-12-08T03:34:51.829Z,5.35
2018-12-08T03:35:51.827Z,5.40
2018-12-08T03:36:51.818Z,5.38
2018-12-08T03:37:51.794Z,5.38
2018-12-08T03:38:51.782Z,5.46
2018-12-08T03:39:51.775Z,5.38
2018-12-08T03:40:51.764Z,5.41
2018-12-08T03:41:51.770Z,5.48
2018-12-08T03:42:51.743Z,5.49
2018-12-08T03:43:51.729Z,5.52
2018-12-08T03:44:51.718Z,5.43
2018-12-08T03:45:51.707Z,5.41
2018-12-08T03:46:51.710Z,5.40
2018-12-08T03:47:51.693Z,5.32
2018-12-08T03:48:51.690Z,5.34
2018-12-08T03:49:51.661Z,5.25
2018-12-08T03:50:51.658Z,5.27
2018-12-08T03:51:51.653Z,5.32
2018-12-08T03:52:51.628Z,5.23
2018-12-08T03:53:51.616Z,5.35
2018-12-08T03:54:51.608Z,5.38
2018-12-08T03:55:51.596Z,5.31
2018-12-08T03:56:51.617Z,5.37
2018-12-08T03:57:51.578Z,5.41
2018-12-08T03:58:51.561Z,5.46
2018-12-08T03:59:51.552Z,5.48
2018-12-08T04:00:51.545Z,5.41
2018-12-08T04:01:51.528Z,5.35
2018-12-08T04:02:51.546Z,5.50
2018-12-08T04:03:51.512Z,5.52
2018-12-08T04:04:51.495Z,5.59
2018-12-08T04:05:51.487Z,5.63
2018-12-08T04:06:51.475Z,5.60
2018-12-08T04:07:51.462Z,5.56
2018-12-08T04:08:51.488Z,5.70
2018-12-08T04:09:51.451Z,5.57
2018-12-08T04:10:51.430Z,5.66
2018-12-08T04:11:51.416Z,5.63
2018-12-08T04:12:51.417Z,5.70
2018-12-08T04:13:51.396Z,5.68
2018-12-08T04:14:51.406Z,5.73
2018-12-08T04:15:51.373Z,5.74
2018-12-08T04:16:51.360Z,5.67
2018-12-08T04:17:51.350Z,5.78
2018-12-08T04:18:51.342Z,5.77
2018-12-08T04:19:51.369Z,5.75
2018-12-08T04:20:51.320Z,5.81
2018-12-08T04:21:51.313Z,5.82
2018-12-08T04:22:51.300Z,5.77
2018-12-08T04:23:51.301Z,5.74
2018-12-08T04:24:51.273Z,5.68
2018-12-08T04:25:51.275Z,5.64
2018-12-08T04:26:51.251Z,5.68
2018-12-08T04:27:51.243Z,5.67
2018-12-08T04:28:51.243Z,5.70
2018-12-08T04:29:51.225Z,5.73
2018-12-08T04:30:51.219Z,5.67
2018-12-08T04:31:51.200Z,5.59
2018-12-08T04:32:51.183Z,5.60
2018-12-08T04:33:51.173Z,5.53
2018-12-08T04:34:51.159Z,5.53
2018-12-08T04:35:51.171Z,5.56
2018-12-08T04:36:51.141Z,5.56
2018-12-08T04:37:51.130Z,5.55
2018-12-08T04:38:51.114Z,5.53
2018-12-08T04:39:51.106Z,5.50
2018-12-08T04:40:51.141Z,5.38
2018-12-08T04:41:51.089Z,5.45
2018-12-08T04:42:51.077Z,5.41
2018-12-08T04:43:51.063Z,5.43
2018-12-08T04:44:51.051Z,5.43
2018-12-08T04:45:51.042Z,5.35
2018-12-08T04:46:51.065Z,5.43
2018-12-08T04:47:51.022Z,5.45
2018-12-08T04:48:51.011Z,5.41
2018-12-08T04:49:50.992Z,5.35
2018-12-08T04:50:50.984Z,5.22
2018-12-08T04:51:50.972Z,5.34
2018-12-08T04:52:50.999Z,5.30
2018-12-08T04:53:50.950Z,5.30
2018-12-08T04:54:50.943Z,5.37
2018-12-08T04:55:50.926Z,5.25
2018-12-08T04:56:50.917Z,5.23
2018-12-08T04:57:50.908Z,5.23
2018-12-08T04:58:50.907Z,5.22
2018-12-08T04:59:50.882Z,5.25
2018-12-08T05:00:50.879Z,5.31
2018-12-08T05:01:50.884Z,5.35
2018-12-08T05:02:50.852Z,5.34
2018-12-08T05:03:50.838Z,5.34
2018-12-08T05:04:50.826Z,5.41
2018-12-08T05:05:50.817Z,5.38
2018-12-08T05:06:50.810Z,5.41
2018-12-08T05:07:50.826Z,5.53
2018-12-08T05:08:50.781Z,5.53
2018-12-08T05:09:50.772Z,5.49
2018-12-08T05:10:50.760Z,5.60
2018-12-08T05:11:50.749Z,5.60
2018-12-08T05:12:50.745Z,5.63
2018-12-08T05:13:50.740Z,5.70
2018-12-08T05:14:50.716Z,5.56
2018-12-08T05:15:50.705Z,5.70
2018-12-08T05:16:50.696Z,5.73
2018-12-08T05:17:50.681Z,5.66
2018-12-08T05:18:50.698Z,5.78
2018-12-08T05:19:50.660Z,5.64
2018-12-08T05:20:50.650Z,5.73
2018-12-08T05:21:50.635Z,5.68
2018-12-08T05:22:50.625Z,5.64
2018-12-08T05:23:50.627Z,5.66
2018-12-08T05:24:50.613Z,5.68
2018-12-08T05:25:50.609Z,5.67
2018-12-08T05:26:50.587Z,5.70
2018-12-08T05:27:50.570Z,5.71
2018-12-08T05:28:50.564Z,5.60
2018-12-08T05:29:50.572Z,5.60
2018-12-08T05:30:50.543Z,5.68
2018-12-08T05:31:50.525Z,5.68
2018-12-08T05:32:50.515Z,5.68
2018-12-08T05:33:50.505Z,5.67
2018-12-08T05:34:50.492Z,5.74
2018-12-08T05:35:50.495Z,5.71
2018-12-08T05:36:50.479Z,5.74
2018-12-08T05:37:50.460Z,5.81
2018-12-08T05:38:50.449Z,5.83
2018-12-08T05:39:50.436Z,5.77
2018-12-08T05:40:50.450Z,5.91
2018-12-08T05:41:50.416Z,5.85
2018-12-08T05:42:50.412Z,5.95
2018-12-08T05:43:50.401Z,5.83
2018-12-08T05:44:50.393Z,5.95
2018-12-08T05:45:50.371Z,5.89
2018-12-08T05:46:50.384Z,5.91
2018-12-08T05:47:50.349Z,5.95
2018-12-08T05:48:50.338Z,5.96
2018-12-08T05:49:50.327Z,6.04
2018-12-08T05:50:50.330Z,5.98
2018-12-08T05:51:50.307Z,6.01
2018-12-08T05:52:50.306Z,5.98
2018-12-08T05:53:50.284Z,5.96
2018-12-08T05:54:50.271Z,5.98
2018-12-08T05:55:50.261Z,6.03
2018-12-08T05:56:50.258Z,6.03
2018-12-08T05:57:50.257Z,5.98
2018-12-08T05:58:50.227Z,6.00
2018-12-08T05:59:50.215Z,6.00
2018-12-08T06:00:50.206Z,5.98
2018-12-08T06:01:50.197Z,6.09
2018-12-08T06:02:50.220Z,6.13
2018-12-08T06:03:50.179Z,6.18
2018-12-08T06:04:50.161Z,6.07
2018-12-08T06:05:50.152Z,6.10
2018-12-08T06:06:50.140Z,6.10
2018-12-08T06:07:50.129Z,6.10
2018-12-08T06:08:50.131Z,6.13
2018-12-08T06:09:50.109Z,6.14
2018-12-08T06:10:50.094Z,6.11
2018-12-08T06:11:50.085Z,6.13
2018-12-08T06:12:50.073Z,6.18
2018-12-08T06:13:50.109Z,6.22
2018-12-08T06:14:50.050Z,6.18
2018-12-08T06:15:50.047Z,6.21
2018-12-08T06:16:50.029Z,6.13
2018-12-08T06:17:50.018Z,6.18
2018-12-08T06:18:50.006Z,6.16
2018-12-08T06:19:50.028Z,6.11
2018-12-08T06:20:49.985Z,6.14
2018-12-08T06:21:49.978Z,6.18
2018-12-08T06:22:49.962Z,6.13
2018-12-08T06:23:49.953Z,6.25
2018-12-08T06:24:49.945Z,6.11
2018-12-08T06:25:49.944Z,6.07
2018-12-08T06:26:49.919Z,6.16
2018-12-08T06:27:49.908Z,6.30
2018-12-08T06:28:49.902Z,6.13
2018-12-08T06:29:49.885Z,6.10
2018-12-08T06:30:49.887Z,6.25
2018-12-08T06:31:49.861Z,6.28
2018-12-08T06:32:49.851Z,6.26
2018-12-08T06:33:49.842Z,6.29
2018-12-08T06:34:49.837Z,6.32
2018-12-08T06:35:49.833Z,6.29
2018-12-08T06:36:49.841Z,6.22
2018-12-08T06:37:49.800Z,6.26
2018-12-08T06:38:49.786Z,6.16
2018-12-08T06:39:49.776Z,6.14
2018-12-08T06:40:49.774Z,6.18
2018-12-08T06:41:49.753Z,6.19
2018-12-08T06:42:49.754Z,6.16
2018-12-08T06:43:49.730Z,6.13
2018-12-08T06:44:49.719Z,6.14
2018-12-08T06:45:49.710Z,6.16
2018-12-08T06:46:49.738Z,6.13
2018-12-08T06:47:49.690Z,6.09
2018-12-08T06:48:49.675Z,6.11
2018-12-08T06:49:49.664Z,6.11
2018-12-08T06:50:49.654Z,6.13
2018-12-08T06:51:49.644Z,6.13
2018-12-08T06:52:49.648Z,6.21
2018-12-08T06:53:49.658Z,6.10
2018-12-08T06:54:49.615Z,6.09
2018-12-08T06:55:49.601Z,6.13
2018-12-08T06:56:49.586Z,6.18
2018-12-08T06:57:49.577Z,6.16
2018-12-08T06:58:49.567Z,6.18
2018-12-08T06:59:49.568Z,6.13
2018-12-08T07:00:49.550Z,6.14
2018-12-08T07:01:49.533Z,6.22
2018-12-08T07:02:49.522Z,6.16
2018-12-08T07:03:49.510Z,6.18
2018-12-08T07:04:49.523Z,6.13
2018-12-08T07:05:49.488Z,6.13
2018-12-08T07:06:49.480Z,6.14
2018-12-08T07:07:49.467Z,6.18
2018-12-08T07:08:49.478Z,6.14
2018-12-08T07:09:49.445Z,6.07
2018-12-08T07:10:49.450Z,6.00
2018-12-08T07:11:49.430Z,5.98
2018-12-08T07:12:49.446Z,5.96
2018-12-08T07:13:49.402Z,5.88
2018-12-08T07:14:49.394Z,5.92
2018-12-08T07:15:49.393Z,5.89
2018-12-08T07:16:49.377Z,5.93
2018-12-08T07:17:49.358Z,5.82
2018-12-08T07:18:49.375Z,5.81
2018-12-08T07:19:49.334Z,5.70
2018-12-08T07:20:49.324Z,5.70
2018-12-08T07:21:49.328Z,5.78
2018-12-08T07:22:49.357Z,5.70
2018-12-08T07:23:49.291Z,5.74
2018-12-08T07:24:49.279Z,5.74
2018-12-08T07:25:49.291Z,5.71
2018-12-08T07:26:49.294Z,5.70
2018-12-08T07:27:49.246Z,5.74
2018-12-08T07:28:49.236Z,5.71
2018-12-08T07:29:49.224Z,5.73
2018-12-08T07:30:49.220Z,5.77
2018-12-08T07:31:49.202Z,5.67
2018-12-08T07:32:49.207Z,5.77
2018-12-08T07:33:49.213Z,5.68
2018-12-08T07:34:49.188Z,5.68
2018-12-08T07:35:49.158Z,5.66
2018-12-08T07:36:49.152Z,5.66
2018-12-08T07:37:49.154Z,5.73
2018-12-08T07:38:49.125Z,5.53
2018-12-08T07:39:49.117Z,5.55
2018-12-08T07:40:49.103Z,5.67
2018-12-08T07:41:49.092Z,5.60
2018-12-08T07:42:49.082Z,5.64
2018-12-08T07:43:49.084Z,5.63
2018-12-08T07:44:49.133Z,5.60
2018-12-08T07:45:49.077Z,5.66
2018-12-08T07:46:49.075Z,5.63
2018-12-08T07:47:49.026Z,5.68
2018-12-08T07:48:49.016Z,5.59
2018-12-08T07:49:49.008Z,5.66
2018-12-08T07:50:48.990Z,5.64
2018-12-08T07:51:48.983Z,5.59
2018-12-08T07:52:49.015Z,5.70
2018-12-08T07:53:48.959Z,5.66
2018-12-08T07:54:48.947Z,5.64
2018-12-08T07:55:48.942Z,5.64
2018-12-08T07:56:48.929Z,5.70
2018-12-08T07:57:48.914Z,5.73
2018-12-08T07:58:48.940Z,5.77
2018-12-08T07:59:48.891Z,5.74
2018-12-08T08:00:48.883Z,5.67
2018-12-08T08:01:48.877Z,5.67
2018-12-08T08:02:48.858Z,5.66
2018-12-08T08:03:48.846Z,5.66
2018-12-08T08:04:48.870Z,5.68
2018-12-08T08:05:48.826Z,5.71
2018-12-08T08:06:48.816Z,5.68
2018-12-08T08:07:48.810Z,5.74
2018-12-08T08:08:48.791Z,5.59
2018-12-08T08:09:48.781Z,5.68
2018-12-08T08:10:48.793Z,5.74
2018-12-08T08:11:48.758Z,5.64
2018-12-08T08:12:48.747Z,5.68
2018-12-08T08:13:48.744Z,5.60
2018-12-08T08:14:48.726Z,5.64
2018-12-08T08:15:48.713Z,5.64
2018-12-08T08:16:48.723Z,5.59
2018-12-08T08:17:48.695Z,5.66
2018-12-08T08:18:48.682Z,5.67
2018-12-08T08:19:48.676Z,5.67
2018-12-08T08:20:48.659Z,5.75
2018-12-08T08:21:48.648Z,5.74
2018-12-08T08:22:48.670Z,5.78
2018-12-08T08:23:48.627Z,5.83
2018-12-08T08:24:48.615Z,5.91
2018-12-08T08:25:48.607Z,5.81
2018-12-08T08:26:48.597Z,5.77
2018-12-08T08:27:48.581Z,5.91
2018-12-08T08:28:48.583Z,5.91
2018-12-08T08:29:48.557Z,5.95
2018-12-08T08:30:48.548Z,6.00
2018-12-08T08:31:48.540Z,6.00
2018-12-08T08:32:48.525Z,5.98
2018-12-08T08:33:48.531Z,6.01
2018-12-08T08:34:48.504Z,5.98
2018-12-08T08:35:48.522Z,5.98
2018-12-08T08:36:48.483Z,6.07
2018-12-08T08:37:48.479Z,6.01
2018-12-08T08:38:48.493Z,5.93
2018-12-08T08:39:48.450Z,6.07
2018-12-08T08:40:48.438Z,6.01
2018-12-08T08:41:48.427Z,5.98
2018-12-08T08:42:48.416Z,5.98
2018-12-08T08:43:48.410Z,6.01
2018-12-08T08:44:48.407Z,5.95
2018-12-08T08:45:48.381Z,6.00
2018-12-08T08:46:48.371Z,5.91
2018-12-08T08:47:48.386Z,6.00
2018-12-08T08:48:48.350Z,6.01
2018-12-08T08:49:48.349Z,5.93
2018-12-08T08:50:48.327Z,6.03
2018-12-08T08:51:48.315Z,5.95
2018-12-08T08:52:48.305Z,6.03
2018-12-08T08:53:48.307Z,6.06
2018-12-08T08:54:48.321Z,6.06
2018-12-08T08:55:48.282Z,6.09
2018-12-08T08:56:48.268Z,6.11
2018-12-08T08:57:48.251Z,6.13
2018-12-08T08:58:48.236Z,6.10
2018-12-08T08:59:48.228Z,6.10
2018-12-08T09:00:48.228Z,6.10
2018-12-08T09:01:48.207Z,6.26
2018-12-08T09:02:48.199Z,6.13
2018-12-08T09:03:48.190Z,6.28
2018-12-08T09:04:48.184Z,6.29
2018-12-08T09:05:48.174Z,6.30
2018-12-08T09:06:48.199Z,6.33
2018-12-08T09:07:48.140Z,6.32
2018-12-08T09:08:48.128Z,6.33
2018-12-08T09:09:48.118Z,6.36
2018-12-08T09:10:48.111Z,6.40
2018-12-08T09:11:48.096Z,6.32
2018-12-08T09:12:48.123Z,6.43
2018-12-08T09:13:48.077Z,6.41
2018-12-08T09:14:48.062Z,6.38
2018-12-08T09:15:49.888Z,6.36
2018-12-08T09:16:48.044Z,6.40
2018-12-08T09:17:48.028Z,6.48
2018-12-08T09:18:48.050Z,6.46
2018-12-08T09:19:48.012Z,6.50
2018-12-08T09:20:47.996Z,6.50
2018-12-08T09:21:47.985Z,6.56
2018-12-08T09:22:47.977Z,6.51
2018-12-08T09:23:47.965Z,6.56
2018-12-08T09:24:47.975Z,6.51
2018-12-08T09:25:47.942Z,6.63
2018-12-08T09:26:47.930Z,6.56
2018-12-08T09:27:49.203Z,6.56
2018-12-08T09:28:47.909Z,6.63
2018-12-08T09:29:47.919Z,6.65
2018-12-08T09:30:47.891Z,6.72
2018-12-08T09:31:47.877Z,6.66
2018-12-08T09:32:47.863Z,6.72
2018-12-08T09:33:47.852Z,6.86
2018-12-08T09:34:47.840Z,6.79
2018-12-08T09:35:47.866Z,6.80
2018-12-08T09:36:47.823Z,6.83
2018-12-08T09:37:47.812Z,6.79
2018-12-08T09:38:47.800Z,6.79
2018-12-08T09:39:47.786Z,6.79
2018-12-08T09:40:47.786Z,6.87
2018-12-08T09:41:47.800Z,6.77
2018-12-08T09:42:47.752Z,6.83
2018-12-08T09:43:47.741Z,6.90
2018-12-08T09:44:47.733Z,6.80
2018-12-08T09:45:47.721Z,6.89
2018-12-08T09:46:47.755Z,6.91
2018-12-08T09:47:47.713Z,6.91
2018-12-08T09:48:47.685Z,6.89
2018-12-08T09:49:47.677Z,6.89
2018-12-08T09:50:47.689Z,6.95
2018-12-08T09:51:47.652Z,6.99
2018-12-08T09:52:47.680Z,6.95
2018-12-08T09:53:47.634Z,7.05
2018-12-08T09:54:47.622Z,7.08
2018-12-08T09:55:47.645Z,7.09
2018-12-08T09:56:47.645Z,7.09
2018-12-08T09:57:47.615Z,7.17
2018-12-08T09:58:47.607Z,7.16
2018-12-08T09:59:47.611Z,7.17
2018-12-08T10:00:47.558Z,7.16
2018-12-08T10:01:47.549Z,7.27
2018-12-08T10:02:47.535Z,7.27
2018-12-08T10:03:47.567Z,7.26
2018-12-08T10:04:47.519Z,7.23
2018-12-08T10:05:47.541Z,7.32
2018-12-08T10:06:47.488Z,7.29
2018-12-08T10:07:47.486Z,7.27
2018-12-08T10:08:47.466Z,7.29
2018-12-08T10:09:47.478Z,7.41
2018-12-08T10:10:47.453Z,7.38
2018-12-08T10:11:47.441Z,7.37
2018-12-08T10:12:47.438Z,7.40
2018-12-08T10:13:47.452Z,7.53
2018-12-08T10:14:47.429Z,7.50
2018-12-08T10:15:47.412Z,7.53
2018-12-08T10:16:47.379Z,7.56
2018-12-08T10:17:47.377Z,7.59
2018-12-08T10:18:47.358Z,7.53
2018-12-08T10:19:47.380Z,7.59
2018-12-08T10:20:47.340Z,7.55
2018-12-08T10:21:47.323Z,7.53
2018-12-08T10:22:47.328Z,7.59
2018-12-08T10:23:47.316Z,7.59
2018-12-08T10:24:47.308Z,7.56
2018-12-08T10:25:47.291Z,7.62
2018-12-08T10:26:47.293Z,7.58
2018-12-08T10:27:47.276Z,7.55
2018-12-08T10:28:47.256Z,7.55
2018-12-08T10:29:47.254Z,7.55
2018-12-08T10:30:47.237Z,7.50
2018-12-08T10:31:47.220Z,7.45
2018-12-08T10:32:47.394Z,7.50
2018-12-08T10:33:47.208Z,7.58
2018-12-08T10:34:47.190Z,7.47
2018-12-08T10:35:47.212Z,7.50
2018-12-08T10:36:47.161Z,7.47
2018-12-08T10:37:47.150Z,7.49
2018-12-08T10:38:47.299Z,7.55
2018-12-08T10:39:47.126Z,7.55
2018-12-08T10:40:47.118Z,7.59
2018-12-08T10:41:47.113Z,7.60
2018-12-08T10:42:47.151Z,7.55
2018-12-08T10:43:47.081Z,7.58
2018-12-08T10:44:47.089Z,7.58
2018-12-08T10:45:47.084Z,7.63
2018-12-08T10:46:47.056Z,7.63
2018-12-08T10:47:47.078Z,7.63
2018-12-08T10:48:47.033Z,7.63
2018-12-08T10:49:47.036Z,7.71
2018-12-08T10:50:47.011Z,7.67
2018-12-08T10:51:47.106Z,7.67
2018-12-08T10:52:46.996Z,7.69
2018-12-08T10:53:46.986Z,7.63
2018-12-08T10:54:46.955Z,7.67
2018-12-08T10:55:46.969Z,7.56
2018-12-08T10:56:46.938Z,7.56
2018-12-08T10:57:46.924Z,7.49
2018-12-08T10:58:46.919Z,7.52
2018-12-08T10:59:46.900Z,7.47
2018-12-08T11:00:46.909Z,7.47
2018-12-08T11:01:46.891Z,7.47
2018-12-08T11:02:46.867Z,7.50
2018-12-08T11:03:46.862Z,7.50
2018-12-08T11:04:46.847Z,7.45
2018-12-08T11:05:46.853Z,7.47
2018-12-08T11:06:46.826Z,7.45
2018-12-08T11:07:46.819Z,7.47
2018-12-08T11:08:46.820Z,7.35
2018-12-08T11:09:46.807Z,7.38
2018-12-08T11:10:46.809Z,7.29
2018-12-08T11:11:46.780Z,7.35
2018-12-08T11:12:46.758Z,7.40
2018-12-08T11:13:46.777Z,7.40
2018-12-08T11:14:46.746Z,7.35
2018-12-08T11:15:46.776Z,7.24
2018-12-08T11:16:46.715Z,7.32
2018-12-08T11:17:46.722Z,7.26
2018-12-08T11:18:46.686Z,7.15
2018-12-08T11:19:46.692Z,7.15
2018-12-08T11:20:46.669Z,7.09
2018-12-08T11:21:46.669Z,7.05
2018-12-08T11:22:46.646Z,7.07
2018-12-08T11:23:46.657Z,6.94
2018-12-08T11:24:46.627Z,6.94
2018-12-08T11:25:46.641Z,6.81
2018-12-08T11:26:46.606Z,6.76
2018-12-08T11:27:46.624Z,6.76
2018-12-08T11:28:46.592Z,6.71
2018-12-08T11:29:46.566Z,6.80
2018-12-08T11:30:46.557Z,6.81
2018-12-08T11:31:46.546Z,6.83
2018-12-08T11:32:46.568Z,6.72
2018-12-08T11:33:46.524Z,6.76
2018-12-08T11:34:46.530Z,6.83
2018-12-08T11:35:46.529Z,6.80
2018-12-08T11:36:49.609Z,6.87
2018-12-08T11:37:46.480Z,6.73
2018-12-08T11:38:46.497Z,6.79
2018-12-08T11:39:46.461Z,6.81
2018-12-08T11:40:46.446Z,6.87
2018-12-08T11:41:46.433Z,6.90
2018-12-08T11:42:46.422Z,6.94
2018-12-08T11:43:46.422Z,6.91
2018-12-08T11:44:46.431Z,6.95
2018-12-08T11:45:46.422Z,6.99
2018-12-08T11:46:46.381Z,6.86
2018-12-08T11:47:46.367Z,6.95
2018-12-08T11:48:46.371Z,6.98
2018-12-08T11:49:46.357Z,7.01
2018-12-08T11:50:46.378Z,6.98
2018-12-08T11:51:46.323Z,7.16
2018-12-08T11:52:46.318Z,7.13
2018-12-08T11:53:46.303Z,7.17
2018-12-08T11:54:46.295Z,7.15
2018-12-08T11:55:46.279Z,7.17
2018-12-08T11:56:46.279Z,7.19
2018-12-08T11:57:46.263Z,7.22
2018-12-08T11:58:46.243Z,7.24
2018-12-08T11:59:46.235Z,7.24
2018-12-08T12:00:46.242Z,7.26
2018-12-08T12:01:46.243Z,7.26
2018-12-08T12:02:46.200Z,7.24
2018-12-08T12:03:46.189Z,7.20
2018-12-08T12:04:46.246Z,7.19
2018-12-08T12:05:46.172Z,7.15
2018-12-08T12:06:46.154Z,7.16
2018-12-08T12:07:46.184Z,7.22
2018-12-08T12:08:46.131Z,7.12
2018-12-08T12:09:46.120Z,7.09
2018-12-08T12:10:46.110Z,7.15
2018-12-08T12:11:46.107Z,7.09
2018-12-08T12:12:46.091Z,7.09
2018-12-08T12:13:46.098Z,7.04
2018-12-08T12:14:46.066Z,7.01
2018-12-08T12:15:46.056Z,7.02
2018-12-08T12:16:46.043Z,7.02
2018-12-08T12:17:46.033Z,7.04
2018-12-08T12:18:46.028Z,6.94
2018-12-08T12:19:46.044Z,7.12
2018-12-08T12:20:45.999Z,6.90
2018-12-08T12:21:45.987Z,6.98
2018-12-08T12:22:45.977Z,6.90
2018-12-08T12:23:45.970Z,7.01
2018-12-08T12:24:45.959Z,6.91
2018-12-08T12:25:45.958Z,6.77
2018-12-08T12:26:45.989Z,6.81
2018-12-08T12:27:45.956Z,6.79
2018-12-08T12:28:45.931Z,6.76
2018-12-08T12:29:45.900Z,6.71
2018-12-08T12:30:45.888Z,6.68
2018-12-08T12:31:45.881Z,6.62
2018-12-08T12:32:45.914Z,6.62
2018-12-08T12:33:45.863Z,6.59
2018-12-08T12:34:45.856Z,6.58
2018-12-08T12:35:45.848Z,6.59
2018-12-08T12:36:45.851Z,6.62
2018-12-08T12:37:45.834Z,6.53
2018-12-08T12:38:45.825Z,6.53
2018-12-08T12:39:45.802Z,6.54
2018-12-08T12:40:45.826Z,6.59
2018-12-08T12:41:45.779Z,6.58
2018-12-08T12:42:45.774Z,6.61
2018-12-08T12:43:45.771Z,6.61
2018-12-08T12:44:45.773Z,6.63
2018-12-08T12:45:45.743Z,6.62
2018-12-08T12:46:45.710Z,6.54
2018-12-08T12:47:45.754Z,6.61
2018-12-08T12:48:45.709Z,6.62
2018-12-08T12:49:45.713Z,6.58
2018-12-08T12:50:45.690Z,6.61
2018-12-08T12:51:45.659Z,6.53
2018-12-08T12:52:45.647Z,6.56
2018-12-08T12:53:45.652Z,6.53
2018-12-08T12:54:45.630Z,6.58
2018-12-08T12:55:45.612Z,6.56
2018-12-08T12:56:45.641Z,6.59
2018-12-08T12:57:45.592Z,6.59
2018-12-08T12:58:45.577Z,6.53
2018-12-08T12:59:45.572Z,6.54
2018-12-08T13:00:45.591Z,6.54
2018-12-08T13:01:45.559Z,6.62
2018-12-08T13:02:45.533Z,6.66
2018-12-08T13:03:45.557Z,6.61
2018-12-08T13:04:45.512Z,6.61
2018-12-08T13:05:45.498Z,6.62
2018-12-08T13:06:45.522Z,6.61
2018-12-08T13:07:45.499Z,6.62
2018-12-08T13:08:45.468Z,6.66
2018-12-08T13:09:45.498Z,6.65
2018-12-08T13:10:45.447Z,6.53
2018-12-08T13:11:45.436Z,6.56
2018-12-08T13:12:45.423Z,6.62
2018-12-08T13:13:45.413Z,6.61
2018-12-08T13:14:45.428Z,6.62
2018-12-08T13:15:45.430Z,6.65
2018-12-08T13:16:45.384Z,6.58
2018-12-08T13:17:45.366Z,6.63
2018-12-08T13:18:45.370Z,6.68